Kanavis, Iran
Current Conditions -  °F | °C
As of 3:30 PM on Saturday 25 Oct 2014 (Local Time) from OIMM Reporting Station
Few Clouds Few Clouds  
Wind Chill: 73°   Ceiling: Unl
Heat Index: 73°   Visibility: 6mi
Dew Point: 34°   Wind: 9mph
Humidity: 23%   Direction: 130°SE
Pressure: 29.94"   Gusts: NA
Location:  36.27°N, 59.89°E
Report Text: OIMM 251130Z 13008KT 9999 FEW040 23/01 Q1014 A2996
Loading
Personal Weather Stations






























Interactive Weather Map
Tropical Storm Tracking
New forecast layout! Learn more

10-Day Weather Forecast

Advertisements
Track Severe Weather on mobile